createdAt,value
2018-04-28T00:01:59.412Z,4.40
2018-04-28T00:04:25.804Z,4.90
2018-04-28T00:06:52.204Z,3.90
2018-04-28T00:09:18.666Z,4.63
2018-04-28T00:11:45.471Z,4.80
2018-04-28T00:14:11.813Z,4.73
2018-04-28T00:16:38.132Z,4.70
2018-04-28T00:19:04.579Z,4.60
2018-04-28T00:21:30.896Z,4.37
2018-04-28T00:23:57.367Z,5.13
2018-04-28T00:26:23.745Z,4.80
2018-04-28T00:28:50.180Z,4.73
2018-04-28T00:31:16.521Z,4.70
2018-04-28T00:33:42.939Z,5.03
2018-04-28T00:36:09.349Z,4.60
2018-04-28T00:38:35.718Z,4.40
2018-04-28T00:41:02.114Z,4.70
2018-04-28T00:43:28.469Z,4.90
2018-04-28T00:45:54.828Z,4.80
2018-04-28T00:48:21.284Z,4.50
2018-04-28T00:50:47.727Z,5.00
2018-04-28T00:53:14.060Z,4.87
2018-04-28T00:55:40.586Z,5.50
2018-04-28T00:58:07.034Z,5.63
2018-04-28T01:00:41.064Z,5.60
2018-04-28T01:03:07.504Z,5.30
2018-04-28T01:08:20.179Z,5.53
2018-04-28T01:10:53.708Z,5.50
2018-04-28T01:13:27.923Z,5.43
2018-04-28T01:16:01.426Z,5.63
2018-04-28T01:18:34.852Z,5.57
2018-04-28T01:21:08.256Z,5.63
2018-04-28T01:23:34.576Z,5.73
2018-04-28T01:26:00.905Z,5.80
2018-04-28T01:28:27.282Z,5.50
2018-04-28T01:30:53.617Z,4.87
2018-04-28T01:33:19.947Z,5.50
2018-04-28T01:35:46.359Z,5.87
2018-04-28T01:38:12.700Z,6.37
2018-04-28T01:40:39.022Z,6.27
2018-04-28T01:43:05.379Z,5.83
2018-04-28T01:45:31.760Z,5.80
2018-04-28T01:47:58.103Z,5.73
2018-04-28T01:50:24.492Z,5.67
2018-04-28T01:52:50.895Z,6.67
2018-04-28T01:55:17.345Z,6.33
2018-04-28T01:57:43.673Z,5.97
2018-04-28T02:00:10.057Z,5.97
2018-04-28T02:02:36.761Z,6.17
2018-04-28T02:05:03.152Z,6.50
2018-04-28T02:07:29.521Z,5.93
2018-04-28T02:09:55.884Z,6.60
2018-04-28T02:12:22.415Z,6.13
2018-04-28T02:14:49.014Z,6.50
2018-04-28T02:17:15.487Z,5.93
2018-04-28T02:19:41.820Z,6.13
2018-04-28T02:22:08.309Z,6.50
2018-04-28T02:24:34.706Z,5.80
2018-04-28T02:27:01.075Z,6.77
2018-04-28T02:29:27.516Z,6.17
2018-04-28T02:31:53.909Z,5.73
2018-04-28T02:34:20.282Z,6.50
2018-04-28T02:36:46.731Z,6.87
2018-04-28T02:39:13.208Z,6.27
2018-04-28T02:41:39.607Z,7.10
2018-04-28T02:44:05.999Z,6.97
2018-04-28T02:46:32.372Z,6.90
2018-04-28T02:48:58.714Z,6.80
2018-04-28T02:51:25.094Z,6.57
2018-04-28T02:53:51.476Z,6.30
2018-04-28T02:56:17.833Z,7.10
2018-04-28T02:58:44.210Z,7.33
2018-04-28T03:01:10.595Z,6.50
2018-04-28T03:03:37.028Z,6.27
2018-04-28T03:06:03.373Z,6.60
2018-04-28T03:08:29.769Z,6.50
2018-04-28T03:10:56.360Z,7.87
2018-04-28T03:13:22.804Z,7.13
2018-04-28T03:15:49.136Z,6.67
2018-04-28T03:18:15.613Z,7.40
2018-04-28T03:20:42.113Z,6.97
2018-04-28T03:23:08.504Z,7.30
2018-04-28T03:25:34.836Z,7.50
2018-04-28T03:28:01.266Z,7.13
2018-04-28T03:30:27.730Z,6.77
2018-04-28T03:32:54.070Z,6.97
2018-04-28T03:35:20.419Z,6.87
2018-04-28T03:37:46.798Z,6.83
2018-04-28T03:40:13.233Z,7.03
2018-04-28T03:42:39.570Z,7.13
2018-04-28T03:45:06.013Z,6.87
2018-04-28T03:47:32.387Z,6.07
2018-04-28T03:49:58.782Z,7.57
2018-04-28T03:52:25.139Z,6.67
2018-04-28T03:54:51.633Z,6.83
2018-04-28T03:57:18.307Z,7.10
2018-04-28T03:59:44.723Z,6.87
2018-04-28T04:02:11.131Z,6.43
2018-04-28T04:04:37.505Z,6.87
2018-04-28T04:07:03.936Z,7.40
2018-04-28T04:09:30.276Z,6.60
2018-04-28T04:11:56.688Z,6.73
2018-04-28T04:14:23.177Z,6.47
2018-04-28T04:16:49.560Z,6.73
2018-04-28T04:19:15.958Z,6.63
2018-04-28T04:21:42.331Z,6.40
2018-04-28T04:24:08.862Z,6.37
2018-04-28T04:26:35.341Z,7.20
2018-04-28T04:29:01.649Z,6.57
2018-04-28T04:31:28.122Z,6.40
2018-04-28T04:33:54.499Z,7.07
2018-04-28T04:36:20.812Z,6.10
2018-04-28T04:38:47.281Z,6.83
2018-04-28T04:41:13.610Z,6.63
2018-04-28T04:43:39.925Z,6.33
2018-04-28T04:46:06.282Z,6.97
2018-04-28T04:48:32.638Z,6.40
2018-04-28T04:50:59.009Z,6.93
2018-04-28T04:53:25.354Z,6.17
2018-04-28T04:55:51.728Z,6.80
2018-04-28T04:58:18.776Z,6.97
2018-04-28T05:00:45.943Z,7.37
2018-04-28T05:03:12.387Z,6.30
2018-04-28T05:05:38.747Z,5.73
2018-04-28T05:08:05.100Z,6.50
2018-04-28T05:10:31.489Z,6.13
2018-04-28T05:12:57.861Z,7.27
2018-04-28T05:15:24.229Z,6.43
2018-04-28T05:17:50.776Z,5.90
2018-04-28T05:20:17.141Z,6.73
2018-04-28T05:22:43.462Z,6.63
2018-04-28T05:25:09.860Z,6.60
2018-04-28T05:27:36.276Z,5.93
2018-04-28T05:30:02.613Z,7.03
2018-04-28T05:32:28.977Z,6.43
2018-04-28T05:34:55.383Z,6.40
2018-04-28T05:37:30.184Z,7.27
2018-04-28T05:39:57.657Z,6.47
2018-04-28T05:42:24.064Z,6.70
2018-04-28T05:44:50.396Z,5.90
2018-04-28T05:47:16.783Z,5.77
2018-04-28T05:49:43.296Z,6.00
2018-04-28T05:52:09.649Z,6.67
2018-04-28T05:54:36.055Z,7.00
2018-04-28T05:57:02.431Z,6.43
2018-04-28T05:59:28.836Z,6.30
2018-04-28T06:01:55.225Z,6.70
2018-04-28T06:04:21.683Z,6.03
2018-04-28T06:06:48.074Z,6.37
2018-04-28T06:09:14.450Z,6.20
2018-04-28T06:11:40.828Z,5.83
2018-04-28T06:14:07.213Z,6.20
2018-04-28T06:16:33.545Z,5.90
2018-04-28T06:18:59.951Z,6.60
2018-04-28T06:21:26.416Z,6.30
2018-04-28T06:23:52.849Z,6.00
2018-04-28T06:26:19.228Z,7.00
2018-04-28T06:28:45.548Z,6.50
2018-04-28T06:31:11.913Z,6.60
2018-04-28T06:33:38.296Z,6.70
2018-04-28T06:36:04.681Z,5.53
2018-04-28T06:38:31.049Z,6.60
2018-04-28T06:40:57.468Z,5.97
2018-04-28T06:43:23.871Z,6.23
2018-04-28T06:45:50.210Z,6.73
2018-04-28T06:48:16.600Z,6.50
2018-04-28T06:50:42.968Z,6.30
2018-04-28T06:53:09.342Z,6.30
2018-04-28T06:55:35.660Z,6.60
2018-04-28T06:58:02.013Z,6.30
2018-04-28T07:00:28.381Z,6.80
2018-04-28T07:02:54.724Z,7.00
2018-04-28T07:05:21.081Z,6.40
2018-04-28T07:07:47.406Z,6.60
2018-04-28T07:10:13.790Z,6.10
2018-04-28T07:12:40.165Z,6.50
2018-04-28T07:15:06.496Z,6.00
2018-04-28T07:17:32.821Z,6.43
2018-04-28T07:19:59.191Z,6.40
2018-04-28T07:22:25.503Z,6.47
2018-04-28T07:24:51.966Z,6.30
2018-04-28T07:27:18.296Z,5.63
2018-04-28T07:29:44.690Z,6.40
2018-04-28T07:32:11.027Z,5.87
2018-04-28T07:34:37.397Z,6.50
2018-04-28T07:37:03.772Z,5.83
2018-04-28T07:39:30.107Z,6.27
2018-04-28T07:41:56.478Z,5.97
2018-04-28T07:44:22.925Z,5.97
2018-04-28T07:46:49.314Z,6.37
2018-04-28T07:49:15.644Z,5.40
2018-04-28T07:51:41.975Z,6.37
2018-04-28T07:54:08.389Z,6.53
2018-04-28T07:56:34.689Z,6.47
2018-04-28T07:59:01.025Z,6.43
2018-04-28T08:01:27.344Z,6.00
2018-04-28T08:03:53.659Z,5.93
2018-04-28T08:06:20.024Z,7.43
2018-04-28T08:08:46.357Z,6.23
2018-04-28T08:11:12.809Z,5.70
2018-04-28T08:13:39.160Z,5.60
2018-04-28T08:16:05.541Z,6.20
2018-04-28T08:18:31.964Z,6.43
2018-04-28T08:20:58.341Z,6.20
2018-04-28T08:23:24.668Z,5.90
2018-04-28T08:25:51.042Z,6.60
2018-04-28T08:28:17.414Z,7.83
2018-04-28T08:30:43.802Z,6.27
2018-04-28T08:35:44.571Z,6.57
2018-04-28T08:38:10.897Z,5.87
2018-04-28T08:40:37.387Z,6.83
2018-04-28T08:43:03.720Z,6.70
2018-04-28T08:45:30.106Z,6.60
2018-04-28T08:47:56.456Z,6.80
2018-04-28T08:50:22.904Z,6.60
2018-04-28T08:52:49.227Z,6.67
2018-04-28T08:55:15.539Z,6.30
2018-04-28T08:57:41.868Z,6.23
2018-04-28T09:00:08.432Z,6.20
2018-04-28T09:02:34.808Z,6.20
2018-04-28T09:05:01.150Z,6.57
2018-04-28T09:07:27.518Z,7.03
2018-04-28T09:09:53.915Z,5.80
2018-04-28T09:12:20.287Z,6.63
2018-04-28T09:14:46.614Z,6.77
2018-04-28T09:17:13.010Z,7.07
2018-04-28T09:19:39.355Z,6.73
2018-04-28T09:22:05.713Z,6.73
2018-04-28T09:24:32.093Z,6.67
2018-04-28T09:26:58.407Z,6.23
2018-04-28T09:29:24.784Z,7.43
2018-04-28T09:31:51.124Z,6.83
2018-04-28T09:34:17.474Z,7.07
2018-04-28T09:36:43.902Z,5.97
2018-04-28T09:39:10.274Z,7.57
2018-04-28T09:41:36.702Z,6.97
2018-04-28T09:44:03.087Z,6.00
2018-04-28T09:46:29.508Z,7.00
2018-04-28T09:48:55.827Z,6.20
2018-04-28T09:51:22.154Z,6.70
2018-04-28T09:53:48.518Z,7.63
2018-04-28T09:58:47.255Z,6.67
2018-04-28T10:01:13.626Z,7.40
2018-04-28T10:03:40.009Z,6.83
2018-04-28T10:06:06.345Z,6.90
2018-04-28T10:08:32.742Z,7.33
2018-04-28T10:10:59.121Z,7.07
2018-04-28T10:13:25.490Z,7.43
2018-04-28T10:15:51.826Z,8.93
2018-04-28T10:18:18.210Z,6.97
2018-04-28T10:20:44.525Z,7.60
2018-04-28T10:23:10.906Z,6.83
2018-04-28T10:25:37.341Z,6.37
2018-04-28T10:28:03.660Z,7.80
2018-04-28T10:30:30.032Z,11.10
2018-04-28T10:32:56.420Z,8.00
2018-04-28T10:35:22.779Z,7.87
2018-04-28T10:37:49.145Z,7.57
2018-04-28T10:40:15.464Z,7.50
2018-04-28T10:42:41.865Z,7.80
2018-04-28T10:45:08.187Z,7.80
2018-04-28T10:47:34.567Z,8.30
2018-04-28T10:50:00.970Z,9.73
2018-04-28T10:52:27.447Z,7.53
2018-04-28T10:54:53.876Z,7.30
2018-04-28T10:57:20.198Z,7.30
2018-04-28T10:59:46.631Z,7.60
2018-04-28T11:02:12.983Z,7.10
2018-04-28T11:04:39.372Z,8.23
2018-04-28T11:07:05.783Z,8.27
2018-04-28T11:09:32.197Z,7.27
2018-04-28T11:11:58.553Z,8.23
2018-04-28T11:14:24.920Z,7.37
2018-04-28T11:16:51.250Z,8.20
2018-04-28T11:19:17.655Z,7.93
2018-04-28T11:21:44.004Z,8.80
2018-04-28T11:24:10.331Z,8.77
2018-04-28T11:26:36.794Z,7.70
2018-04-28T11:29:03.175Z,8.00
2018-04-28T11:31:29.553Z,10.53
2018-04-28T11:33:55.876Z,8.27
2018-04-28T11:36:22.297Z,8.27
2018-04-28T11:38:48.680Z,9.37
2018-04-28T11:41:15.010Z,8.60
2018-04-28T11:43:41.448Z,10.20
2018-04-28T11:46:07.831Z,9.30
2018-04-28T11:48:34.209Z,9.53
2018-04-28T11:51:00.571Z,10.23
2018-04-28T11:53:26.936Z,8.00
2018-04-28T11:55:53.388Z,9.23
2018-04-28T11:58:19.776Z,9.03
2018-04-28T12:00:46.108Z,10.63
2018-04-28T12:03:12.474Z,7.90
2018-04-28T12:05:38.869Z,8.40
2018-04-28T12:08:05.219Z,8.00
2018-04-28T12:10:31.569Z,9.57
2018-04-28T12:12:57.985Z,8.40
2018-04-28T12:15:24.591Z,9.67
2018-04-28T12:17:51.030Z,16.10
2018-04-28T12:20:17.396Z,9.37
2018-04-28T12:22:43.748Z,11.83
2018-04-28T12:25:10.115Z,8.37
2018-04-28T12:27:36.461Z,7.67
2018-04-28T12:30:02.860Z,7.97
2018-04-28T12:32:29.192Z,9.83
2018-04-28T12:34:55.559Z,10.80
2018-04-28T12:37:21.908Z,11.73
2018-04-28T12:39:48.317Z,11.87
2018-04-28T12:42:14.663Z,12.40
2018-04-28T12:44:40.978Z,9.50
2018-04-28T12:47:07.347Z,14.67
2018-04-28T12:49:33.743Z,10.23
2018-04-28T12:52:00.070Z,10.10
2018-04-28T12:54:26.486Z,10.77
2018-04-28T12:56:52.976Z,8.83
2018-04-28T12:59:19.288Z,9.60
2018-04-28T13:01:45.652Z,12.07
2018-04-28T13:04:12.024Z,7.93
2018-04-28T13:06:38.382Z,10.17
2018-04-28T13:09:04.769Z,9.00
2018-04-28T13:11:31.141Z,8.60
2018-04-28T13:13:57.456Z,8.90
2018-04-28T13:16:23.814Z,7.73
2018-04-28T13:18:50.147Z,8.20
2018-04-28T13:21:16.532Z,9.73
2018-04-28T13:23:42.878Z,9.17
2018-04-28T13:26:09.239Z,14.40
2018-04-28T13:28:35.608Z,8.10
2018-04-28T13:31:01.939Z,8.30
2018-04-28T13:33:28.265Z,13.93
2018-04-28T13:35:54.624Z,8.37
2018-04-28T13:38:21.000Z,12.07
2018-04-28T13:40:47.351Z,8.60
2018-04-28T13:43:13.684Z,8.40
2018-04-28T13:45:40.103Z,8.17
2018-04-28T13:48:06.477Z,8.37
2018-04-28T13:50:32.807Z,13.00
2018-04-28T13:52:59.131Z,9.20
2018-04-28T13:55:25.493Z,10.97
2018-04-28T13:57:51.853Z,8.27
2018-04-28T14:00:18.185Z,8.47
2018-04-28T14:02:44.504Z,8.27
2018-04-28T14:05:10.854Z,10.73
2018-04-28T14:07:37.285Z,11.30
2018-04-28T14:10:03.631Z,8.30
2018-04-28T14:12:29.996Z,8.40
2018-04-28T14:14:56.353Z,9.70
2018-04-28T14:17:22.813Z,9.37
2018-04-28T14:19:49.247Z,8.10
2018-04-28T14:22:15.572Z,8.27
2018-04-28T14:24:41.943Z,9.40
2018-04-28T14:27:08.260Z,9.53
2018-04-28T14:29:34.629Z,12.03
2018-04-28T14:32:01.031Z,7.90
2018-04-28T14:34:27.483Z,10.47
2018-04-28T14:36:53.803Z,8.20
2018-04-28T14:39:20.181Z,12.30
2018-04-28T14:41:46.560Z,8.30
2018-04-28T14:44:12.914Z,8.23
2018-04-28T14:46:39.228Z,7.80
2018-04-28T14:49:05.564Z,7.63
2018-04-28T14:51:31.900Z,7.97
2018-04-28T14:53:58.255Z,7.73
2018-04-28T14:56:24.593Z,7.20
2018-04-28T14:58:51.010Z,7.83
2018-04-28T15:01:17.395Z,7.03
2018-04-28T15:03:43.762Z,7.07
2018-04-28T15:06:10.093Z,7.50
2018-04-28T15:08:36.547Z,7.07
2018-04-28T15:11:02.882Z,6.17
2018-04-28T15:13:29.280Z,7.17
2018-04-28T15:15:55.627Z,7.27
2018-04-28T15:18:21.947Z,8.40
2018-04-28T15:20:48.383Z,8.53
2018-04-28T15:23:14.753Z,8.03
2018-04-28T15:25:41.078Z,7.10
2018-04-28T15:28:07.522Z,7.20
2018-04-28T15:30:33.868Z,7.50
2018-04-28T15:33:00.279Z,7.70
2018-04-28T15:35:26.668Z,7.67
2018-04-28T15:37:53.005Z,8.70
2018-04-28T15:40:19.326Z,7.77
2018-04-28T15:42:45.666Z,7.27
2018-04-28T15:45:11.987Z,7.60
2018-04-28T15:47:38.332Z,6.67
2018-04-28T15:50:04.652Z,7.20
2018-04-28T15:52:30.982Z,7.20
2018-04-28T15:54:57.311Z,6.93
2018-04-28T15:57:23.641Z,7.23
2018-04-28T15:59:49.997Z,6.30
2018-04-28T16:02:16.383Z,7.73
2018-04-28T16:04:42.748Z,7.20
2018-04-28T16:07:09.168Z,7.17
2018-04-28T16:09:35.583Z,6.50
2018-04-28T16:12:01.955Z,6.77
2018-04-28T16:14:28.289Z,7.60
2018-04-28T16:16:54.677Z,7.40
2018-04-28T16:19:21.137Z,6.50
2018-04-28T16:21:47.859Z,7.63
2018-04-28T16:24:14.185Z,7.53
2018-04-28T16:26:40.554Z,7.00
2018-04-28T16:29:06.872Z,7.00
2018-04-28T16:31:33.180Z,7.30
2018-04-28T16:33:59.594Z,7.00
2018-04-28T16:36:25.942Z,7.50
2018-04-28T16:38:52.277Z,7.37
2018-04-28T16:41:19.323Z,6.93
2018-04-28T16:43:45.657Z,6.50
2018-04-28T16:46:12.012Z,7.17
2018-04-28T16:48:38.348Z,7.17
2018-04-28T16:51:04.747Z,6.63
2018-04-28T16:53:31.082Z,7.47
2018-04-28T16:55:57.457Z,7.43
2018-04-28T16:58:23.818Z,7.07
2018-04-28T17:00:50.280Z,6.97
2018-04-28T17:03:16.701Z,7.20
2018-04-28T17:05:43.069Z,7.50
2018-04-28T17:08:09.388Z,7.40
2018-04-28T17:10:35.736Z,7.30
2018-04-28T17:13:02.165Z,7.17
2018-04-28T17:15:28.536Z,7.90
2018-04-28T17:17:54.929Z,7.67
2018-04-28T17:20:21.466Z,9.63
2018-04-28T17:22:47.924Z,7.30
2018-04-28T17:25:14.308Z,6.90
2018-04-28T17:27:40.652Z,6.83
2018-04-28T17:30:07.022Z,7.30
2018-04-28T17:32:33.449Z,7.03
2018-04-28T17:34:59.818Z,6.97
2018-04-28T17:37:26.161Z,7.07
2018-04-28T17:39:52.611Z,8.20
2018-04-28T17:42:19.013Z,7.00
2018-04-28T17:44:45.392Z,6.87
2018-04-28T17:47:11.715Z,7.20
2018-04-28T17:49:38.073Z,7.00
2018-04-28T17:52:04.401Z,7.00
2018-04-28T17:54:30.777Z,8.10
2018-04-28T17:56:57.099Z,6.30
2018-04-28T17:59:23.666Z,7.63
2018-04-28T18:01:50.030Z,7.20
2018-04-28T18:04:16.450Z,6.67
2018-04-28T18:06:42.820Z,7.40
2018-04-28T18:09:09.297Z,7.20
2018-04-28T18:11:35.691Z,7.43
2018-04-28T18:14:02.057Z,7.50
2018-04-28T18:16:28.444Z,6.77
2018-04-28T18:18:54.806Z,7.27
2018-04-28T18:21:21.204Z,8.53
2018-04-28T18:23:47.530Z,6.93
2018-04-28T18:26:13.942Z,7.17
2018-04-28T18:28:40.284Z,7.10
2018-04-28T18:31:06.806Z,7.20
2018-04-28T18:33:33.141Z,6.73
2018-04-28T18:35:59.516Z,7.00
2018-04-28T18:38:25.842Z,6.80
2018-04-28T18:40:52.352Z,6.83
2018-04-28T18:43:18.628Z,7.47
2018-04-28T18:45:44.959Z,7.57
2018-04-28T18:48:11.411Z,7.77
2018-04-28T18:50:38.746Z,7.50
2018-04-28T18:53:05.061Z,7.87
2018-04-28T18:55:31.391Z,7.10
2018-04-28T18:57:57.710Z,6.67
2018-04-28T19:00:25.054Z,7.37
2018-04-28T19:02:51.428Z,6.27
2018-04-28T19:05:17.927Z,7.17
2018-04-28T19:07:44.277Z,6.30
2018-04-28T19:10:10.605Z,7.80
2018-04-28T19:12:37.222Z,6.60
2018-04-28T19:15:03.551Z,7.50
2018-04-28T19:17:30.053Z,7.60
2018-04-28T19:19:56.429Z,7.27
2018-04-28T19:22:22.870Z,7.20
2018-04-28T19:24:49.190Z,6.63
2018-04-28T19:27:15.519Z,6.33
2018-04-28T19:29:41.917Z,7.83
2018-04-28T19:32:08.237Z,6.37
2018-04-28T19:34:34.635Z,7.13
2018-04-28T19:37:00.964Z,7.10
2018-04-28T19:39:27.308Z,6.50
2018-04-28T19:41:53.668Z,7.00
2018-04-28T19:44:20.036Z,8.00
2018-04-28T19:46:46.378Z,6.80
2018-04-28T19:49:12.704Z,7.13
2018-04-28T19:51:39.041Z,7.30
2018-04-28T19:54:05.355Z,7.17
2018-04-28T19:56:31.685Z,7.37
2018-04-28T19:58:58.028Z,7.20
2018-04-28T20:01:24.423Z,6.63
2018-04-28T20:03:50.803Z,9.50
2018-04-28T20:06:17.182Z,6.97
2018-04-28T20:08:43.504Z,6.97
2018-04-28T20:11:09.848Z,6.83
2018-04-28T20:13:36.175Z,6.90
2018-04-28T20:16:02.509Z,7.30
2018-04-28T20:18:28.882Z,7.30
2018-04-28T20:20:55.229Z,7.30
2018-04-28T20:23:21.546Z,7.30
2018-04-28T20:25:47.885Z,7.00
2018-04-28T20:28:14.216Z,6.77
2018-04-28T20:30:40.597Z,6.43
2018-04-28T20:33:07.057Z,6.90
2018-04-28T20:35:33.389Z,7.67
2018-04-28T20:37:59.850Z,6.20
2018-04-28T20:40:26.215Z,6.80
2018-04-28T20:42:52.672Z,7.43
2018-04-28T20:45:18.998Z,6.60
2018-04-28T20:47:45.304Z,6.60
2018-04-28T20:50:11.691Z,6.23
2018-04-28T20:52:38.008Z,6.20
2018-04-28T20:55:04.345Z,7.73
2018-04-28T20:57:30.733Z,6.90
2018-04-28T20:59:57.172Z,6.40
2018-04-28T21:02:23.482Z,6.33
2018-04-28T21:04:49.868Z,6.77
2018-04-28T21:07:16.287Z,6.30
2018-04-28T21:09:42.699Z,6.60
2018-04-28T21:12:09.220Z,8.10
2018-04-28T21:14:35.627Z,6.93
2018-04-28T21:17:02.130Z,6.50
2018-04-28T21:19:28.533Z,6.50
2018-04-28T21:21:54.864Z,6.87
2018-04-28T21:24:21.237Z,6.63
2018-04-28T21:26:47.625Z,6.50
2018-04-28T21:29:13.943Z,7.00
2018-04-28T21:31:40.256Z,6.30
2018-04-28T21:34:06.580Z,6.60
2018-04-28T21:36:32.905Z,7.10
2018-04-28T21:38:59.295Z,7.00
2018-04-28T21:41:25.644Z,7.27
2018-04-28T21:43:51.975Z,6.50
2018-04-28T21:46:18.347Z,6.40
2018-04-28T21:48:44.673Z,6.10
2018-04-28T21:51:11.008Z,7.27
2018-04-28T21:53:37.363Z,6.80
2018-04-28T21:56:03.820Z,6.40
2018-04-28T21:58:30.167Z,7.20
2018-04-28T22:00:56.571Z,6.60
2018-04-28T22:03:23.029Z,6.60
2018-04-28T22:05:49.379Z,6.30
2018-04-28T22:08:15.747Z,6.20
2018-04-28T22:10:42.125Z,6.80
2018-04-28T22:13:08.460Z,6.30
2018-04-28T22:15:34.843Z,6.63
2018-04-28T22:18:01.184Z,6.33
2018-04-28T22:20:27.584Z,6.70
2018-04-28T22:22:53.970Z,6.23
2018-04-28T22:25:20.337Z,6.60
2018-04-28T22:27:46.672Z,6.23
2018-04-28T22:30:13.021Z,6.47
2018-04-28T22:32:39.344Z,6.50
2018-04-28T22:35:05.681Z,5.90
2018-04-28T22:37:32.013Z,6.60
2018-04-28T22:39:58.380Z,6.63
2018-04-28T22:42:24.711Z,6.50
2018-04-28T22:44:51.190Z,6.20
2018-04-28T22:47:17.521Z,6.00
2018-04-28T22:49:43.858Z,6.37
2018-04-28T22:52:10.243Z,6.60
2018-04-28T22:54:36.709Z,6.10
2018-04-28T22:57:03.051Z,6.73
2018-04-28T22:59:29.375Z,6.63
2018-04-28T23:01:55.737Z,6.20
2018-04-28T23:04:22.154Z,6.67
2018-04-28T23:06:48.568Z,6.10
2018-04-28T23:09:14.947Z,5.90
2018-04-28T23:11:41.297Z,6.13
2018-04-28T23:14:07.666Z,5.60
2018-04-28T23:16:33.990Z,6.30
2018-04-28T23:19:00.321Z,6.20
2018-04-28T23:21:26.755Z,5.23
2018-04-28T23:23:53.105Z,5.70
2018-04-28T23:26:19.447Z,6.20
2018-04-28T23:28:45.784Z,6.10
2018-04-28T23:31:12.106Z,6.17
2018-04-28T23:33:38.513Z,5.77
2018-04-28T23:36:04.865Z,6.60
2018-04-28T23:38:31.231Z,6.17
2018-04-28T23:40:57.558Z,6.37
2018-04-28T23:43:26.036Z,5.90
2018-04-28T23:45:52.433Z,5.80
2018-04-28T23:48:18.810Z,6.40
2018-04-28T23:50:45.155Z,6.07
2018-04-28T23:53:11.508Z,6.30
2018-04-28T23:55:37.828Z,6.00
2018-04-28T23:58:04.181Z,6.10
